DAL2941 MDPC-TNCM
Flight info
| Callsign | DAL2941 |
|---|---|
| Flight time | N/A |
| Altitude | 35000 |
| Route | MELLA2T MELLA G633 MAZ RTE12 SJU RTE6 STT B520 PJM |
| Aircraft | A20N/M-SDE2E3FGHIRWXY/LB1 |
Departure
| Time | 2026-04-27 19:39 |
|---|---|
| Airport | Punta Cana International Airport (MDPC) |
Arrival
| Time | N/A |
|---|---|
| Airport | Princess Juliana International Airport (TNCM) |
| Time | Latitude | Longitude | Altitude | Speed | Heading |
|---|---|---|---|---|---|
| 2026-04-27 19:31 | 18.56434 | -68.36913 | 48 ft | 0 kts | 83° |
| 2026-04-27 19:32 | 18.56433 | -68.36922 | 48 ft | 3 kts | 83° |
| 2026-04-27 19:32 | 18.56431 | -68.36942 | 48 ft | 3 kts | 83° |
| 2026-04-27 19:32 | 18.56429 | -68.36961 | 49 ft | 3 kts | 83° |
| 2026-04-27 19:33 | 18.56427 | -68.36981 | 50 ft | 3 kts | 83° |
| 2026-04-27 19:33 | 18.56424 | -68.36993 | 52 ft | 3 kts | 48° |
| 2026-04-27 19:33 | 18.56404 | -68.36997 | 48 ft | 3 kts | 309° |
| 2026-04-27 19:33 | 18.56402 | -68.36994 | 48 ft | 0 kts | 297° |
| 2026-04-27 19:35 | 18.56399 | -68.36990 | 48 ft | 0 kts | 285° |
| 2026-04-27 19:35 | 18.56412 | -68.37015 | 50 ft | 9 kts | 310° |
| 2026-04-27 19:36 | 18.56445 | -68.37019 | 51 ft | 8 kts | 2° |
| 2026-04-27 19:36 | 18.56494 | -68.37053 | 53 ft | 7 kts | 287° |
| 2026-04-27 19:36 | 18.56495 | -68.37111 | 53 ft | 14 kts | 266° |
| 2026-04-27 19:36 | 18.56481 | -68.37285 | 53 ft | 33 kts | 265° |
| 2026-04-27 19:37 | 18.56457 | -68.37568 | 52 ft | 40 kts | 262° |
| 2026-04-27 19:37 | 18.56442 | -68.37717 | 52 ft | 8 kts | 265° |
| 2026-04-27 19:37 | 18.56486 | -68.37786 | 52 ft | 15 kts | 345° |
| 2026-04-27 19:37 | 18.56520 | -68.37791 | 51 ft | 0 kts | 349° |
| 2026-04-27 19:38 | 18.56539 | -68.37795 | 51 ft | 11 kts | 350° |
| 2026-04-27 19:38 | 18.56619 | -68.37747 | 50 ft | 9 kts | 95° |
| 2026-04-27 19:38 | 18.56626 | -68.37665 | 51 ft | 28 kts | 84° |
| 2026-04-27 19:38 | 18.56663 | -68.37204 | 52 ft | 95 kts | 85° |
| 2026-04-27 19:39 | 18.56745 | -68.36317 | 51 ft | 146 kts | 85° |
| 2026-04-27 19:39 | 18.56844 | -68.35262 | 648 ft | 130 kts | 83° |
| 2026-04-27 19:39 | 18.57004 | -68.34354 | 1159 ft | 131 kts | 79° |
| 2026-04-27 19:39 | 18.57209 | -68.33389 | 1563 ft | 141 kts | 80° |
| 2026-04-27 19:40 | 18.57316 | -68.32294 | 1890 ft | 160 kts | 90° |
| 2026-04-27 19:40 | 18.57322 | -68.31045 | 2191 ft | 180 kts | 93° |
| 2026-04-27 19:40 | 18.57057 | -68.29698 | 2500 ft | 198 kts | 115° |
| 2026-04-27 19:40 | 18.56224 | -68.28489 | 2764 ft | 211 kts | 135° |
| 2026-04-27 19:41 | 18.55125 | -68.27404 | 3127 ft | 221 kts | 139° |
| 2026-04-27 19:41 | 18.53939 | -68.26293 | 3448 ft | 234 kts | 139° |
| 2026-04-27 19:41 | 18.52699 | -68.25148 | 3914 ft | 239 kts | 141° |
| 2026-04-27 19:41 | 18.51400 | -68.24066 | 4376 ft | 246 kts | 143° |
| 2026-04-27 19:42 | 18.49999 | -68.22935 | 4720 ft | 260 kts | 143° |
| 2026-04-27 19:42 | 18.48530 | -68.21752 | 5082 ft | 270 kts | 143° |
| 2026-04-27 19:42 | 18.47041 | -68.20549 | 5835 ft | 268 kts | 143° |
| 2026-04-27 19:42 | 18.45558 | -68.19349 | 6530 ft | 269 kts | 143° |
| 2026-04-27 19:43 | 18.44070 | -68.18143 | 7175 ft | 271 kts | 143° |
| 2026-04-27 19:43 | 18.42573 | -68.16930 | 7816 ft | 273 kts | 143° |
| 2026-04-27 19:43 | 18.41061 | -68.15704 | 8437 ft | 276 kts | 143° |
| 2026-04-27 19:43 | 18.39551 | -68.14481 | 9054 ft | 279 kts | 143° |
| 2026-04-27 19:44 | 18.38005 | -68.13229 | 9676 ft | 282 kts | 144° |
| 2026-04-27 19:44 | 18.36440 | -68.11961 | 10206 ft | 288 kts | 144° |
| 2026-04-27 19:44 | 18.34809 | -68.10642 | 10494 ft | 303 kts | 144° |
| 2026-04-27 19:44 | 18.33100 | -68.09259 | 10747 ft | 317 kts | 144° |
| 2026-04-27 19:45 | 18.31324 | -68.07822 | 11131 ft | 326 kts | 144° |
| 2026-04-27 19:45 | 18.29513 | -68.06356 | 11593 ft | 331 kts | 144° |
| 2026-04-27 19:45 | 18.27680 | -68.04873 | 12095 ft | 335 kts | 144° |
| 2026-04-27 19:45 | 18.25843 | -68.03336 | 12598 ft | 340 kts | 141° |
| 2026-04-27 19:46 | 18.24194 | -68.01530 | 13134 ft | 346 kts | 130° |
| 2026-04-27 19:46 | 18.22925 | -67.99392 | 13649 ft | 354 kts | 118° |
| 2026-04-27 19:46 | 18.22114 | -67.96921 | 14154 ft | 361 kts | 104° |
| 2026-04-27 19:46 | 18.21824 | -67.94279 | 14675 ft | 366 kts | 95° |
| 2026-04-27 19:47 | 18.21792 | -67.91588 | 15200 ft | 370 kts | 91° |
| 2026-04-27 19:47 | 18.21879 | -67.88869 | 15723 ft | 374 kts | 89° |
| 2026-04-27 19:47 | 18.22017 | -67.86128 | 16237 ft | 377 kts | 89° |
| 2026-04-27 19:47 | 18.22165 | -67.83365 | 16734 ft | 380 kts | 89° |
| 2026-04-27 19:48 | 18.22303 | -67.80577 | 17218 ft | 383 kts | 89° |
| 2026-04-27 19:48 | 18.22426 | -67.77761 | 17693 ft | 387 kts | 90° |
| 2026-04-27 19:48 | 18.22537 | -67.74925 | 18161 ft | 390 kts | 90° |
| 2026-04-27 19:48 | 18.22637 | -67.72104 | 18558 ft | 393 kts | 90° |
| 2026-04-27 19:49 | 18.22735 | -67.69221 | 18943 ft | 396 kts | 90° |
| 2026-04-27 19:49 | 18.22831 | -67.66318 | 19331 ft | 399 kts | 90° |
| 2026-04-27 19:49 | 18.22927 | -67.63390 | 19720 ft | 402 kts | 90° |
| 2026-04-27 19:49 | 18.23023 | -67.60444 | 20111 ft | 405 kts | 90° |
| 2026-04-27 19:50 | 18.23121 | -67.57474 | 20504 ft | 408 kts | 90° |
| 2026-04-27 19:50 | 18.23219 | -67.54480 | 20900 ft | 411 kts | 90° |
| 2026-04-27 19:50 | 18.23318 | -67.51467 | 21320 ft | 413 kts | 90° |
| 2026-04-27 19:50 | 18.23445 | -67.48480 | 21732 ft | 416 kts | 89° |
| 2026-04-27 19:51 | 18.23623 | -67.45430 | 22137 ft | 419 kts | 88° |
| 2026-04-27 19:51 | 18.23829 | -67.42357 | 22546 ft | 423 kts | 88° |
| 2026-04-27 19:51 | 18.24044 | -67.39269 | 22964 ft | 426 kts | 88° |
| 2026-04-27 19:51 | 18.24262 | -67.36149 | 23375 ft | 429 kts | 88° |
| 2026-04-27 19:52 | 18.24477 | -67.33008 | 23751 ft | 432 kts | 88° |
| 2026-04-27 19:52 | 18.24689 | -67.29844 | 24090 ft | 435 kts | 88° |
| 2026-04-27 19:52 | 18.24899 | -67.26661 | 24437 ft | 437 kts | 88° |
| 2026-04-27 19:52 | 18.25108 | -67.23464 | 24786 ft | 440 kts | 88° |
| 2026-04-27 19:53 | 18.25520 | -67.17048 | 25492 ft | 445 kts | 89° |
| 2026-04-27 19:53 | 18.25575 | -67.13786 | 25825 ft | 447 kts | 92° |
| 2026-04-27 19:53 | 18.25559 | -67.10519 | 26149 ft | 449 kts | 93° |
| 2026-04-27 19:54 | 18.25510 | -67.07228 | 26461 ft | 451 kts | 94° |
| 2026-04-27 19:54 | 18.25443 | -67.03922 | 26790 ft | 453 kts | 94° |
| 2026-04-27 19:54 | 18.25368 | -67.00595 | 27098 ft | 455 kts | 94° |
| 2026-04-27 19:54 | 18.25291 | -66.97262 | 27405 ft | 457 kts | 94° |
| 2026-04-27 19:55 | 18.25215 | -66.93951 | 27721 ft | 460 kts | 94° |
| 2026-04-27 19:55 | 18.25140 | -66.90582 | 28025 ft | 462 kts | 94° |
| 2026-04-27 19:55 | 18.25066 | -66.87198 | 28342 ft | 464 kts | 94° |
| 2026-04-27 19:55 | 18.24993 | -66.83799 | 28661 ft | 465 kts | 94° |
| 2026-04-27 19:56 | 18.24919 | -66.80387 | 28953 ft | 468 kts | 94° |
| 2026-04-27 19:56 | 18.24844 | -66.76961 | 29287 ft | 470 kts | 94° |
| 2026-04-27 19:56 | 18.24769 | -66.73519 | 29606 ft | 472 kts | 94° |
| 2026-04-27 19:56 | 18.24691 | -66.70057 | 29870 ft | 474 kts | 94° |
| 2026-04-27 19:57 | 18.24613 | -66.66584 | 30123 ft | 477 kts | 94° |
| 2026-04-27 19:57 | 18.24535 | -66.63133 | 30337 ft | 479 kts | 94° |
| 2026-04-27 19:57 | 18.24455 | -66.59620 | 30562 ft | 481 kts | 94° |
| 2026-04-27 19:57 | 18.24372 | -66.56097 | 30789 ft | 483 kts | 94° |
| 2026-04-27 19:58 | 18.24427 | -66.52554 | 30970 ft | 488 kts | 87° |
| 2026-04-27 19:58 | 18.24996 | -66.49020 | 31182 ft | 492 kts | 76° |
| 2026-04-27 19:58 | 18.26067 | -66.45593 | 31401 ft | 495 kts | 71° |
| 2026-04-27 19:58 | 18.27307 | -66.42201 | 31598 ft | 499 kts | 69° |
| 2026-04-27 19:59 | 18.28618 | -66.38863 | 31769 ft | 502 kts | 68° |
| 2026-04-27 19:59 | 18.29989 | -66.35486 | 32077 ft | 502 kts | 68° |
| 2026-04-27 19:59 | 18.31370 | -66.32113 | 32386 ft | 501 kts | 68° |
| 2026-04-27 19:59 | 18.32746 | -66.28739 | 32683 ft | 501 kts | 68° |
| 2026-04-27 20:00 | 18.34114 | -66.25363 | 32973 ft | 502 kts | 68° |
| 2026-04-27 20:00 | 18.35468 | -66.21995 | 33400 ft | 497 kts | 69° |
| 2026-04-27 20:00 | 18.36803 | -66.18659 | 33869 ft | 493 kts | 69° |
| 2026-04-27 20:00 | 18.38131 | -66.15327 | 34147 ft | 493 kts | 69° |
| 2026-04-27 20:01 | 18.39456 | -66.11996 | 34381 ft | 493 kts | 69° |
| 2026-04-27 20:01 | 18.40760 | -66.08714 | 34653 ft | 493 kts | 69° |
| 2026-04-27 20:01 | 18.42082 | -66.05385 | 34929 ft | 493 kts | 69° |
| 2026-04-27 20:01 | 18.43220 | -66.01990 | 35022 ft | 491 kts | 78° |
| 2026-04-27 20:02 | 18.43785 | -65.98476 | 35023 ft | 485 kts | 90° |
| 2026-04-27 20:02 | 18.43687 | -65.94961 | 35036 ft | 478 kts | 102° |
| 2026-04-27 20:02 | 18.42552 | -65.88088 | 35023 ft | 475 kts | 107° |
| 2026-04-27 20:03 | 18.41135 | -65.81349 | 35034 ft | 474 kts | 107° |
| 2026-04-27 20:03 | 18.39688 | -65.74577 | 35026 ft | 474 kts | 107° |
| 2026-04-27 20:04 | 18.38275 | -65.67792 | 35042 ft | 475 kts | 107° |
| 2026-04-27 20:04 | 18.36882 | -65.61002 | 35044 ft | 475 kts | 107° |
| 2026-04-27 20:05 | 18.35493 | -65.54228 | 35043 ft | 479 kts | 107° |
| 2026-04-27 20:05 | 18.34083 | -65.47364 | 35032 ft | 480 kts | 107° |
| 2026-04-27 20:06 | 18.32670 | -65.40499 | 35032 ft | 480 kts | 107° |
| 2026-04-27 20:06 | 18.31254 | -65.33635 | 35029 ft | 480 kts | 107° |
| 2026-04-27 20:07 | 18.29951 | -65.26742 | 35024 ft | 484 kts | 100° |
| 2026-04-27 20:07 | 18.29879 | -65.23229 | 35026 ft | 491 kts | 89° |
| 2026-04-27 20:07 | 18.30448 | -65.19676 | 35036 ft | 495 kts | 79° |
| 2026-04-27 20:08 | 18.32340 | -65.12690 | 35027 ft | 498 kts | 75° |
| 2026-04-27 20:08 | 18.34435 | -65.05751 | 35030 ft | 496 kts | 79° |
| 2026-04-27 20:09 | 18.34956 | -65.02180 | 35022 ft | 491 kts | 91° |
| 2026-04-27 20:09 | 18.34846 | -64.98622 | 35023 ft | 485 kts | 100° |
| 2026-04-27 20:09 | 18.33948 | -64.91663 | 35024 ft | 482 kts | 104° |
| 2026-04-27 20:10 | 18.32779 | -64.84721 | 35024 ft | 482 kts | 105° |
| 2026-04-27 20:10 | 18.31590 | -64.77779 | 35023 ft | 482 kts | 104° |
| 2026-04-27 20:11 | 18.30433 | -64.70833 | 35023 ft | 482 kts | 104° |
| 2026-04-27 20:11 | 18.29293 | -64.63886 | 35037 ft | 482 kts | 104° |
| 2026-04-27 20:12 | 18.28163 | -64.56988 | 35025 ft | 482 kts | 104° |
| 2026-04-27 20:12 | 18.27020 | -64.50039 | 35024 ft | 482 kts | 104° |
| 2026-04-27 20:13 | 18.25876 | -64.43100 | 35011 ft | 482 kts | 104° |
| 2026-04-27 20:13 | 18.24728 | -64.36155 | 35024 ft | 481 kts | 104° |
| 2026-04-27 20:14 | 18.23588 | -64.29277 | 35020 ft | 480 kts | 104° |
| 2026-04-27 20:14 | 18.22442 | -64.22374 | 35015 ft | 479 kts | 104° |
| 2026-04-27 20:15 | 18.21292 | -64.15475 | 35016 ft | 479 kts | 104° |
| 2026-04-27 20:15 | 18.20141 | -64.08575 | 35019 ft | 479 kts | 104° |
| 2026-04-27 20:16 | 18.18995 | -64.01727 | 35021 ft | 478 kts | 104° |
| 2026-04-27 20:16 | 18.17846 | -63.94866 | 35025 ft | 476 kts | 104° |
| 2026-04-27 20:17 | 18.16690 | -63.87994 | 34568 ft | 481 kts | 104° |
| 2026-04-27 20:17 | 18.16102 | -63.84511 | 33804 ft | 486 kts | 104° |
| 2026-04-27 20:17 | 18.15711 | -63.82192 | 33289 ft | 486 kts | 103° |
| 2026-04-27 20:18 | 18.14928 | -63.77540 | 32199 ft | 480 kts | 103° |
| 2026-04-27 20:18 | 18.14351 | -63.74104 | 31464 ft | 475 kts | 103° |
| 2026-04-27 20:18 | 18.13781 | -63.70712 | 30831 ft | 467 kts | 103° |
| 2026-04-27 20:18 | 18.13217 | -63.67368 | 30104 ft | 462 kts | 103° |
| 2026-04-27 20:19 | 18.12659 | -63.64055 | 29282 ft | 457 kts | 103° |
| 2026-04-27 20:19 | 18.12116 | -63.60825 | 28520 ft | 452 kts | 103° |
| 2026-04-27 20:19 | 18.11573 | -63.57594 | 27763 ft | 447 kts | 103° |
| 2026-04-27 20:19 | 18.11034 | -63.54388 | 27016 ft | 442 kts | 103° |
| 2026-04-27 20:20 | 18.10500 | -63.51223 | 26288 ft | 438 kts | 103° |
| 2026-04-27 20:20 | 18.09972 | -63.48090 | 25576 ft | 433 kts | 103° |
| 2026-04-27 20:20 | 18.09449 | -63.44991 | 24882 ft | 429 kts | 103° |
| 2026-04-27 20:20 | 18.08930 | -63.41919 | 24248 ft | 423 kts | 103° |
| 2026-04-27 20:21 | 18.08418 | -63.38892 | 23578 ft | 419 kts | 103° |
| 2026-04-27 20:21 | 18.07910 | -63.35891 | 22816 ft | 414 kts | 103° |
| 2026-04-27 20:21 | 18.07408 | -63.32928 | 22046 ft | 410 kts | 103° |
| 2026-04-27 20:21 | 18.06913 | -63.30007 | 21408 ft | 403 kts | 103° |
| 2026-04-27 20:22 | 18.06432 | -63.27174 | 20845 ft | 395 kts | 103° |
| 2026-04-27 20:22 | 18.05956 | -63.24366 | 20355 ft | 385 kts | 103° |
| 2026-04-27 20:22 | 18.05495 | -63.21653 | 20047 ft | 371 kts | 103° |
| 2026-04-27 20:22 | 18.05047 | -63.19018 | 19541 ft | 364 kts | 103° |
| 2026-04-27 20:23 | 18.04558 | -63.16417 | 18916 ft | 360 kts | 109° |
| 2026-04-27 20:23 | 18.03703 | -63.13970 | 18350 ft | 356 kts | 110° |
| 2026-04-27 20:23 | 18.03355 | -63.11403 | 17664 ft | 358 kts | 88° |
| 2026-04-27 20:23 | 18.03765 | -63.08831 | 16991 ft | 356 kts | 77° |
| 2026-04-27 20:24 | 18.04391 | -63.06328 | 16327 ft | 353 kts | 75° |
| 2026-04-27 20:24 | 18.05039 | -63.03847 | 15683 ft | 350 kts | 75° |
| 2026-04-27 20:24 | 18.05681 | -63.01385 | 15047 ft | 347 kts | 75° |
| 2026-04-27 20:24 | 18.06307 | -62.98987 | 14433 ft | 344 kts | 75° |
| 2026-04-27 20:25 | 18.06935 | -62.96575 | 13817 ft | 340 kts | 75° |
| 2026-04-27 20:25 | 18.07556 | -62.94184 | 13125 ft | 337 kts | 76° |
| 2026-04-27 20:25 | 18.07790 | -62.91765 | 12437 ft | 331 kts | 97° |
| 2026-04-27 20:25 | 18.07142 | -62.89485 | 11795 ft | 324 kts | 120° |
| 2026-04-27 20:26 | 18.05719 | -62.87712 | 11264 ft | 314 kts | 144° |
| 2026-04-27 20:26 | 18.03833 | -62.86686 | 11028 ft | 300 kts | 161° |
| 2026-04-27 20:26 | 18.01847 | -62.86025 | 10993 ft | 300 kts | 165° |
| 2026-04-27 20:26 | 17.99833 | -62.85414 | 10990 ft | 301 kts | 165° |
| 2026-04-27 20:27 | 17.97851 | -62.84810 | 10995 ft | 300 kts | 165° |
| 2026-04-27 20:27 | 17.95836 | -62.84199 | 10997 ft | 303 kts | 165° |
| 2026-04-27 20:27 | 17.93806 | -62.83581 | 10996 ft | 304 kts | 165° |
| 2026-04-27 20:27 | 17.91781 | -62.82955 | 10990 ft | 303 kts | 165° |
| 2026-04-27 20:28 | 17.89746 | -62.82338 | 10995 ft | 305 kts | 165° |
| 2026-04-27 20:28 | 17.87709 | -62.81717 | 10994 ft | 305 kts | 165° |
| 2026-04-27 20:28 | 17.85663 | -62.81106 | 10982 ft | 306 kts | 165° |
| 2026-04-27 20:28 | 17.84302 | -62.80701 | 10983 ft | 307 kts | 165° |
| 2026-04-27 20:29 | 17.81566 | -62.79869 | 10982 ft | 306 kts | 165° |
| 2026-04-27 20:29 | 17.79521 | -62.79247 | 10978 ft | 306 kts | 165° |
| 2026-04-27 20:29 | 17.77509 | -62.78624 | 10981 ft | 305 kts | 165° |
| 2026-04-27 20:29 | 17.75472 | -62.78000 | 10765 ft | 305 kts | 165° |
| 2026-04-27 20:30 | 17.73443 | -62.77381 | 10440 ft | 300 kts | 165° |
| 2026-04-27 20:30 | 17.71455 | -62.76771 | 10104 ft | 296 kts | 165° |
| 2026-04-27 20:30 | 17.69481 | -62.76177 | 9716 ft | 294 kts | 165° |
| 2026-04-27 20:30 | 17.67523 | -62.75586 | 9308 ft | 292 kts | 165° |
| 2026-04-27 20:31 | 17.65574 | -62.75047 | 8883 ft | 289 kts | 173° |
| 2026-04-27 20:31 | 17.63597 | -62.75201 | 8444 ft | 285 kts | 199° |
| 2026-04-27 20:31 | 17.61926 | -62.76249 | 8091 ft | 281 kts | 226° |
| 2026-04-27 20:31 | 17.60920 | -62.77979 | 7990 ft | 281 kts | 253° |
| 2026-04-27 20:32 | 17.60709 | -62.80012 | 7985 ft | 283 kts | 271° |
| 2026-04-27 20:32 | 17.60848 | -62.82045 | 7989 ft | 284 kts | 275° |
| 2026-04-27 20:32 | 17.61044 | -62.84111 | 7987 ft | 285 kts | 275° |
| 2026-04-27 20:32 | 17.61252 | -62.86177 | 7987 ft | 285 kts | 275° |
| 2026-04-27 20:33 | 17.61464 | -62.88246 | 7988 ft | 285 kts | 275° |
| 2026-04-27 20:33 | 17.61681 | -62.90312 | 7988 ft | 285 kts | 275° |
| 2026-04-27 20:33 | 17.61895 | -62.92378 | 7987 ft | 285 kts | 275° |
| 2026-04-27 20:33 | 17.62103 | -62.94446 | 7986 ft | 285 kts | 275° |
| 2026-04-27 20:34 | 17.62316 | -62.96515 | 7987 ft | 285 kts | 275° |
| 2026-04-27 20:34 | 17.62528 | -62.98584 | 7988 ft | 286 kts | 275° |
| 2026-04-27 20:34 | 17.62733 | -63.00656 | 7989 ft | 286 kts | 275° |
| 2026-04-27 20:34 | 17.62940 | -63.02729 | 7987 ft | 285 kts | 275° |
| 2026-04-27 20:35 | 17.63146 | -63.04729 | 7978 ft | 268 kts | 275° |
| 2026-04-27 20:35 | 17.63342 | -63.06585 | 7977 ft | 253 kts | 275° |
| 2026-04-27 20:35 | 17.63529 | -63.08407 | 7986 ft | 251 kts | 275° |
| 2026-04-27 20:35 | 17.63719 | -63.10225 | 7989 ft | 251 kts | 275° |
| 2026-04-27 20:36 | 17.63916 | -63.12044 | 7991 ft | 251 kts | 275° |
| 2026-04-27 20:36 | 17.64111 | -63.13869 | 7982 ft | 252 kts | 275° |
| 2026-04-27 20:36 | 17.64310 | -63.15692 | 7980 ft | 252 kts | 275° |
| 2026-04-27 20:36 | 17.64512 | -63.17518 | 7981 ft | 252 kts | 275° |
| 2026-04-27 20:37 | 17.64705 | -63.19347 | 7983 ft | 252 kts | 275° |
| 2026-04-27 20:37 | 17.64903 | -63.21174 | 7982 ft | 252 kts | 275° |
| 2026-04-27 20:37 | 17.65103 | -63.22979 | 7983 ft | 252 kts | 275° |
| 2026-04-27 20:37 | 17.65302 | -63.24829 | 7982 ft | 252 kts | 275° |
| 2026-04-27 20:38 | 17.65499 | -63.26659 | 7990 ft | 252 kts | 275° |
| 2026-04-27 20:38 | 17.65688 | -63.28463 | 7985 ft | 252 kts | 275° |
| 2026-04-27 20:38 | 17.65878 | -63.30291 | 7985 ft | 252 kts | 275° |
| 2026-04-27 20:38 | 17.66079 | -63.32121 | 7802 ft | 253 kts | 275° |
| 2026-04-27 20:39 | 17.66279 | -63.33952 | 7479 ft | 252 kts | 275° |
| 2026-04-27 20:39 | 17.66470 | -63.35775 | 7161 ft | 251 kts | 275° |
| 2026-04-27 20:39 | 17.66659 | -63.37597 | 6836 ft | 251 kts | 275° |
| 2026-04-27 20:39 | 17.66848 | -63.39409 | 6515 ft | 251 kts | 275° |
| 2026-04-27 20:40 | 17.67035 | -63.41224 | 6183 ft | 250 kts | 275° |
| 2026-04-27 20:40 | 17.67222 | -63.43036 | 5853 ft | 249 kts | 275° |
| 2026-04-27 20:40 | 17.67407 | -63.44841 | 5521 ft | 249 kts | 276° |
| 2026-04-27 20:40 | 17.67590 | -63.46616 | 5215 ft | 248 kts | 275° |
| 2026-04-27 20:41 | 17.67780 | -63.48405 | 5009 ft | 246 kts | 276° |
| 2026-04-27 20:41 | 17.67976 | -63.50195 | 4983 ft | 249 kts | 276° |
| 2026-04-27 20:41 | 17.68166 | -63.51996 | 4980 ft | 248 kts | 276° |
| 2026-04-27 20:41 | 17.68587 | -63.53732 | 4970 ft | 247 kts | 299° |
| 2026-04-27 20:42 | 17.69737 | -63.55025 | 4974 ft | 244 kts | 330° |
| 2026-04-27 20:42 | 17.71318 | -63.55659 | 4981 ft | 245 kts | 347° |
| 2026-04-27 20:42 | 17.72994 | -63.56042 | 4976 ft | 247 kts | 350° |
| 2026-04-27 20:42 | 17.74684 | -63.56386 | 4979 ft | 248 kts | 350° |
| 2026-04-27 20:43 | 17.76353 | -63.56712 | 4975 ft | 247 kts | 351° |
| 2026-04-27 20:43 | 17.78040 | -63.57047 | 4973 ft | 247 kts | 350° |
| 2026-04-27 20:43 | 17.79731 | -63.57384 | 4981 ft | 247 kts | 351° |
| 2026-04-27 20:43 | 17.81419 | -63.57721 | 4976 ft | 247 kts | 350° |
| 2026-04-27 20:44 | 17.83107 | -63.58049 | 4977 ft | 247 kts | 353° |
| 2026-04-27 20:44 | 17.84811 | -63.58079 | 4979 ft | 245 kts | 8° |
| 2026-04-27 20:44 | 17.86498 | -63.57851 | 4981 ft | 245 kts | 10° |
| 2026-04-27 20:44 | 17.88182 | -63.57573 | 4971 ft | 245 kts | 10° |
| 2026-04-27 20:45 | 17.89874 | -63.57289 | 4973 ft | 247 kts | 10° |
| 2026-04-27 20:45 | 17.91535 | -63.57009 | 4967 ft | 239 kts | 10° |
| 2026-04-27 20:45 | 17.93132 | -63.56737 | 4860 ft | 229 kts | 11° |
| 2026-04-27 20:45 | 17.94676 | -63.56479 | 4739 ft | 220 kts | 10° |
| 2026-04-27 20:46 | 17.96134 | -63.56239 | 4646 ft | 205 kts | 9° |
| 2026-04-27 20:46 | 17.97524 | -63.56009 | 4364 ft | 201 kts | 11° |
| 2026-04-27 20:46 | 17.98911 | -63.55790 | 3991 ft | 203 kts | 11° |
| 2026-04-27 20:46 | 18.00309 | -63.55578 | 3651 ft | 203 kts | 11° |
| 2026-04-27 20:47 | 18.01648 | -63.55207 | 3304 ft | 197 kts | 33° |
| 2026-04-27 20:47 | 18.02508 | -63.54173 | 2947 ft | 187 kts | 73° |
| 2026-04-27 20:47 | 18.02621 | -63.52857 | 2631 ft | 181 kts | 95° |
| 2026-04-27 20:47 | 18.02587 | -63.51554 | 2487 ft | 181 kts | 94° |
| 2026-04-27 20:48 | 18.02552 | -63.50228 | 2469 ft | 183 kts | 93° |
| 2026-04-27 20:48 | 18.02533 | -63.49326 | 2477 ft | 183 kts | 94° |
| 2026-04-27 20:48 | 18.02394 | -63.47582 | 2476 ft | 179 kts | 108° |
| 2026-04-27 20:48 | 18.02197 | -63.46290 | 2486 ft | 181 kts | 92° |
| 2026-04-27 20:49 | 18.02180 | -63.44967 | 2480 ft | 181 kts | 94° |
| 2026-04-27 20:49 | 18.02157 | -63.43641 | 2478 ft | 182 kts | 93° |
| 2026-04-27 20:49 | 18.02117 | -63.42316 | 2483 ft | 181 kts | 95° |
| 2026-04-27 20:49 | 18.02063 | -63.41000 | 2478 ft | 180 kts | 95° |
| 2026-04-27 20:50 | 18.01999 | -63.39687 | 2474 ft | 180 kts | 95° |
| 2026-04-27 20:50 | 18.01930 | -63.38394 | 2486 ft | 179 kts | 95° |
| 2026-04-27 20:50 | 18.01859 | -63.37087 | 2489 ft | 180 kts | 96° |
| 2026-04-27 20:50 | 18.01785 | -63.35774 | 2486 ft | 180 kts | 96° |
| 2026-04-27 20:51 | 18.01710 | -63.34465 | 2477 ft | 180 kts | 95° |
| 2026-04-27 20:51 | 18.01635 | -63.33155 | 2490 ft | 180 kts | 95° |
| 2026-04-27 20:51 | 18.01556 | -63.31812 | 2564 ft | 191 kts | 95° |
| 2026-04-27 20:51 | 18.01478 | -63.30437 | 2579 ft | 187 kts | 96° |
| 2026-04-27 20:52 | 18.01504 | -63.29076 | 2506 ft | 187 kts | 87° |
| 2026-04-27 20:52 | 18.01668 | -63.27721 | 2436 ft | 187 kts | 85° |
| 2026-04-27 20:52 | 18.01863 | -63.26375 | 2370 ft | 187 kts | 85° |
| 2026-04-27 20:52 | 18.02054 | -63.25089 | 2277 ft | 174 kts | 84° |
| 2026-04-27 20:53 | 18.02234 | -63.23883 | 2143 ft | 161 kts | 86° |
| 2026-04-27 20:53 | 18.02399 | -63.22771 | 2003 ft | 148 kts | 86° |
| 2026-04-27 20:53 | 18.02550 | -63.21730 | 1767 ft | 142 kts | 85° |
| 2026-04-27 20:53 | 18.02696 | -63.20710 | 1702 ft | 141 kts | 87° |
| 2026-04-27 20:54 | 18.02981 | -63.18694 | 1298 ft | 139 kts | 85° |
| 2026-04-27 20:54 | 18.03120 | -63.17727 | 1195 ft | 129 kts | 85° |
| 2026-04-27 20:54 | 18.03252 | -63.16807 | 965 ft | 126 kts | 87° |
| 2026-04-27 20:55 | 18.03379 | -63.15916 | 793 ft | 124 kts | 87° |
| 2026-04-27 20:55 | 18.03506 | -63.15023 | 675 ft | 124 kts | 85° |
| 2026-04-27 20:55 | 18.03635 | -63.14105 | 618 ft | 129 kts | 84° |
| 2026-04-27 20:55 | 18.03764 | -63.13198 | 335 ft | 125 kts | 83° |
| 2026-04-27 20:56 | 18.03902 | -63.12294 | 146 ft | 123 kts | 83° |
| 2026-04-27 20:56 | 18.04143 | -63.11335 | 451 ft | 155 kts | 63° |
| 2026-04-27 20:56 | 18.05058 | -63.10549 | 1002 ft | 191 kts | 21° |
| 2026-04-27 20:56 | 18.06386 | -63.10554 | 1661 ft | 185 kts | 352° |
| 2026-04-27 20:57 | 18.07680 | -63.10896 | 2141 ft | 191 kts | 347° |
| 2026-04-27 20:57 | 18.08865 | -63.11400 | 2543 ft | 182 kts | 332° |
| 2026-04-27 20:57 | 18.09960 | -63.11960 | 2942 ft | 168 kts | 341° |
| 2026-04-27 20:57 | 18.11038 | -63.12350 | 3384 ft | 168 kts | 344° |
| 2026-04-27 20:58 | 18.12070 | -63.12990 | 3804 ft | 176 kts | 313° |
| 2026-04-27 20:58 | 18.12740 | -63.14044 | 3978 ft | 173 kts | 295° |
| 2026-04-27 20:58 | 18.13234 | -63.15201 | 3988 ft | 174 kts | 289° |
| 2026-04-27 20:58 | 18.13337 | -63.16428 | 3988 ft | 169 kts | 252° |
| 2026-04-27 20:59 | 18.12874 | -63.17545 | 3985 ft | 167 kts | 237° |
| 2026-04-27 20:59 | 18.12247 | -63.18592 | 3679 ft | 171 kts | 233° |
| 2026-04-27 20:59 | 18.11482 | -63.19535 | 3228 ft | 176 kts | 216° |
| 2026-04-27 20:59 | 18.10390 | -63.20174 | 2890 ft | 184 kts | 199° |
| 2026-04-27 21:00 | 18.09224 | -63.20648 | 2779 ft | 173 kts | 196° |
| 2026-04-27 21:00 | 18.08119 | -63.21086 | 2513 ft | 168 kts | 197° |
| 2026-04-27 21:00 | 18.07049 | -63.21477 | 2317 ft | 155 kts | 187° |
| 2026-04-27 21:00 | 18.06017 | -63.21461 | 2059 ft | 145 kts | 168° |
| 2026-04-27 21:01 | 18.05036 | -63.21229 | 1801 ft | 142 kts | 160° |
| 2026-04-27 21:01 | 18.04105 | -63.20897 | 1788 ft | 142 kts | 158° |
| 2026-04-27 21:01 | 18.03216 | -63.20475 | 1785 ft | 139 kts | 139° |
| 2026-04-27 21:01 | 18.02808 | -63.19583 | 1795 ft | 140 kts | 102° |
| 2026-04-27 21:02 | 18.02583 | -63.18732 | 2511 ft | 105 kts | 124° |
| 2026-04-27 21:02 | 18.01782 | -63.18539 | 2885 ft | 151 kts | 201° |
| 2026-04-27 21:02 | 18.01056 | -63.19285 | 2887 ft | 161 kts | 238° |
| 2026-04-27 21:02 | 18.01104 | -63.20481 | 3054 ft | 162 kts | 305° |
| 2026-04-27 21:03 | 18.02017 | -63.21049 | 2802 ft | 158 kts | 353° |
| 2026-04-27 21:03 | 18.02921 | -63.20700 | 2580 ft | 147 kts | 64° |
| 2026-04-27 21:03 | 18.03125 | -63.19646 | 2250 ft | 150 kts | 89° |
| 2026-04-27 21:03 | 18.03197 | -63.18539 | 1864 ft | 151 kts | 90° |
| 2026-04-27 21:04 | 18.03278 | -63.17471 | 1649 ft | 146 kts | 90° |
| 2026-04-27 21:04 | 18.03373 | -63.16400 | 1249 ft | 147 kts | 89° |
| 2026-04-27 21:04 | 18.03483 | -63.15362 | 897 ft | 142 kts | 86° |
| 2026-04-27 21:04 | 18.03628 | -63.14376 | 663 ft | 131 kts | 87° |
| 2026-04-27 21:05 | 18.03744 | -63.13456 | 455 ft | 123 kts | 81° |
| 2026-04-27 21:05 | 18.03861 | -63.12588 | 424 ft | 132 kts | 84° |
| 2026-04-27 21:05 | 18.04357 | -63.11610 | 751 ft | 177 kts | 39° |
| 2026-04-27 21:05 | 18.05564 | -63.11507 | 1079 ft | 174 kts | 337° |
| 2026-04-27 21:06 | 18.06157 | -63.12388 | 1115 ft | 137 kts | 263° |
| 2026-04-27 21:06 | 18.05806 | -63.13243 | 888 ft | 132 kts | 223° |
| 2026-04-27 21:06 | 18.05204 | -63.14149 | 1172 ft | 182 kts | 250° |
| 2026-04-27 21:06 | 18.05070 | -63.15480 | 1522 ft | 184 kts | 272° |
| 2026-04-27 21:07 | 18.05237 | -63.16909 | 1762 ft | 198 kts | 274° |
| 2026-04-27 21:07 | 18.04765 | -63.17978 | 2098 ft | 169 kts | 192° |
| 2026-04-27 21:07 | 18.03822 | -63.17603 | 2457 ft | 154 kts | 117° |
| 2026-04-27 21:07 | 18.03623 | -63.16562 | 2286 ft | 149 kts | 100° |